createdAt,value
2023-01-06T00:01:30.189Z,24.95
2023-01-06T00:04:34.341Z,6.57
2023-01-06T00:07:38.367Z,10.17
2023-01-06T00:10:42.616Z,7.25
2023-01-06T00:13:46.428Z,2.95
2023-01-06T00:16:52.087Z,5.97
2023-01-06T00:19:58.119Z,8.60
2023-01-06T00:23:03.523Z,11.73
2023-01-06T00:26:12.169Z,26.80
2023-01-06T00:29:16.579Z,17.17
2023-01-06T00:32:21.738Z,11.02
2023-01-06T00:35:25.708Z,13.20
2023-01-06T00:38:30.137Z,13.15
2023-01-06T00:41:52.364Z,26.95
2023-01-06T00:44:56.258Z,12.48
2023-01-06T00:48:02.661Z,13.23
2023-01-06T00:51:06.932Z,24.48
2023-01-06T00:54:13.693Z,19.83
2023-01-06T00:57:17.553Z,12.80
2023-01-06T01:00:22.483Z,18.02
2023-01-06T01:03:26.880Z,29.05
2023-01-06T01:06:31.023Z,33.08
2023-01-06T01:09:35.314Z,36.72
2023-01-06T01:12:39.305Z,84.87
2023-01-06T01:15:43.264Z,40.80
2023-01-06T01:18:47.557Z,31.40
2023-01-06T01:21:51.793Z,42.67
2023-01-06T01:24:55.724Z,47.17
2023-01-06T01:27:59.932Z,38.78
2023-01-06T01:31:05.015Z,48.45
2023-01-06T01:34:10.574Z,41.60
2023-01-06T01:37:14.733Z,38.53
2023-01-06T01:40:18.951Z,31.58
2023-01-06T01:43:22.985Z,41.33
2023-01-06T01:46:41.797Z,34.33
2023-01-06T01:49:51.755Z,42.90
2023-01-06T01:53:01.482Z,49.85
2023-01-06T01:56:09.614Z,61.28
2023-01-06T01:59:20.631Z,44.22
2023-01-06T02:02:25.354Z,46.88
2023-01-06T02:05:30.844Z,41.65
2023-01-06T02:08:42.952Z,41.05
2023-01-06T02:11:51.873Z,54.63
2023-01-06T02:14:55.836Z,47.88
2023-01-06T02:18:14.534Z,39.97
2023-01-06T02:21:35.294Z,51.05
2023-01-06T02:25:08.197Z,49.75
2023-01-06T02:28:22.282Z,49.08
2023-01-06T02:31:45.719Z,46.97
2023-01-06T02:35:18.453Z,41.05
2023-01-06T02:38:43.256Z,31.40
2023-01-06T02:42:26.289Z,32.40
2023-01-06T02:45:39.510Z,46.03
2023-01-06T02:48:53.538Z,49.60
2023-01-06T02:52:06.720Z,52.47
2023-01-06T02:55:33.169Z,48.15
2023-01-06T02:58:54.556Z,47.00
2023-01-06T03:02:01.564Z,44.45
2023-01-06T03:05:09.653Z,36.30
2023-01-06T03:08:25.588Z,37.03
2023-01-06T03:11:34.541Z,51.55
2023-01-06T03:14:45.438Z,53.22
2023-01-06T03:17:50.252Z,61.30
2023-01-06T03:21:00.587Z,51.05
2023-01-06T03:24:08.096Z,39.97
2023-01-06T03:27:12.613Z,29.67
2023-01-06T03:30:18.543Z,21.73
2023-01-06T03:33:30.350Z,24.77
2023-01-06T03:36:49.648Z,20.00
2023-01-06T03:40:06.616Z,19.52
2023-01-06T03:43:40.248Z,22.35
2023-01-06T03:46:54.198Z,27.65
2023-01-06T03:50:24.255Z,24.45
2023-01-06T03:53:55.550Z,26.85
2023-01-06T03:57:19.966Z,25.02
2023-01-06T04:00:29.954Z,24.58
2023-01-06T04:03:39.474Z,25.30
2023-01-06T04:06:44.576Z,25.40
2023-01-06T04:09:48.888Z,23.02
2023-01-06T04:12:53.731Z,21.95
2023-01-06T04:16:03.693Z,18.13
2023-01-06T04:19:12.521Z,21.08
2023-01-06T04:22:16.879Z,20.38
2023-01-06T04:25:21.562Z,20.50
2023-01-06T04:28:25.768Z,24.70
2023-01-06T04:31:35.402Z,24.77
2023-01-06T04:34:40.103Z,20.27
2023-01-06T04:37:44.888Z,19.08
2023-01-06T04:40:48.686Z,15.63
2023-01-06T04:43:52.622Z,17.33
2023-01-06T04:46:56.333Z,20.27
2023-01-06T04:50:00.675Z,20.67
2023-01-06T04:53:05.577Z,16.38
2023-01-06T04:56:12.601Z,32.35
2023-01-06T04:59:18.688Z,92.57
2023-01-06T05:02:22.602Z,29.92
2023-01-06T05:05:28.052Z,30.35
2023-01-06T05:08:33.579Z,21.90
2023-01-06T05:11:37.405Z,22.33
2023-01-06T05:14:41.263Z,25.75
2023-01-06T05:17:45.751Z,25.65
2023-01-06T05:20:56.481Z,27.17
2023-01-06T05:24:00.719Z,38.95
2023-01-06T05:27:05.199Z,32.13
2023-01-06T05:30:09.565Z,35.35
2023-01-06T05:33:13.676Z,33.45
2023-01-06T05:36:19.430Z,30.92
2023-01-06T05:39:24.000Z,18.23
2023-01-06T05:42:27.874Z,21.70
2023-01-06T05:45:31.830Z,20.55
2023-01-06T05:48:36.341Z,18.75
2023-01-06T05:51:40.216Z,16.80
2023-01-06T05:54:44.003Z,19.13
2023-01-06T05:57:48.418Z,13.75
2023-01-06T06:00:52.208Z,13.93
2023-01-06T06:03:57.078Z,13.15
2023-01-06T06:07:01.037Z,16.63
2023-01-06T06:10:06.183Z,18.77
2023-01-06T06:13:10.118Z,15.50
2023-01-06T06:16:17.080Z,17.65
2023-01-06T06:19:21.493Z,17.63
2023-01-06T06:22:25.590Z,62.03
2023-01-06T06:25:30.415Z,81.40
2023-01-06T06:28:37.564Z,55.65
2023-01-06T06:31:41.563Z,66.03
2023-01-06T06:37:54.515Z,27.48
2023-01-06T06:40:58.477Z,20.33
2023-01-06T06:44:02.498Z,18.20
2023-01-06T06:47:06.478Z,21.42
2023-01-06T06:50:12.568Z,22.27
2023-01-06T06:53:16.454Z,18.10
2023-01-06T06:56:22.415Z,24.45
2023-01-06T06:59:27.008Z,25.17
2023-01-06T07:02:31.047Z,38.80
2023-01-06T07:05:35.554Z,31.65
2023-01-06T07:08:39.888Z,23.90
2023-01-06T07:11:43.892Z,20.60
2023-01-06T07:14:47.785Z,18.50
2023-01-06T07:17:51.734Z,19.50
2023-01-06T07:20:59.270Z,20.67
2023-01-06T07:24:03.385Z,17.88
2023-01-06T07:27:07.188Z,19.80
2023-01-06T07:30:16.927Z,23.73
2023-01-06T07:33:21.497Z,25.10
2023-01-06T07:36:25.513Z,35.42
2023-01-06T07:39:29.949Z,30.58
2023-01-06T07:42:33.795Z,28.87
2023-01-06T07:45:38.037Z,26.27
2023-01-06T07:48:43.007Z,20.53
2023-01-06T07:51:47.623Z,23.98
2023-01-06T07:54:51.520Z,24.58
2023-01-06T07:57:55.565Z,30.55
2023-01-06T08:01:05.577Z,32.47
2023-01-06T08:04:09.425Z,36.08
2023-01-06T08:07:14.925Z,36.00
2023-01-06T08:13:22.648Z,30.70
2023-01-06T08:16:26.547Z,34.17
2023-01-06T08:19:30.876Z,30.55
2023-01-06T08:22:35.040Z,33.22
2023-01-06T08:25:39.228Z,34.30
2023-01-06T08:28:44.838Z,35.28
2023-01-06T08:31:49.454Z,35.80
2023-01-06T08:34:53.613Z,39.58
2023-01-06T08:37:58.037Z,53.30
2023-01-06T08:41:03.490Z,56.95
2023-01-06T08:44:08.243Z,47.70
2023-01-06T08:47:12.161Z,48.35
2023-01-06T08:50:16.569Z,72.47
2023-01-06T08:53:20.466Z,82.95
2023-01-06T08:56:27.562Z,51.77
2023-01-06T08:59:56.930Z,48.83
2023-01-06T09:03:01.288Z,78.05
2023-01-06T09:06:30.604Z,75.67
2023-01-06T09:09:35.493Z,65.45
2023-01-06T09:13:04.313Z,59.17
2023-01-06T09:19:37.172Z,96.97
2023-01-06T09:23:08.005Z,130.45
2023-01-06T09:26:12.857Z,100.75
2023-01-06T09:29:43.031Z,105.88
2023-01-06T09:32:47.556Z,140.13
2023-01-06T09:43:09.272Z,80.00
2023-01-06T09:46:21.636Z,85.45
2023-01-06T09:52:57.274Z,56.42
2023-01-06T09:56:09.300Z,53.85
2023-01-06T09:59:35.911Z,61.17
2023-01-06T10:03:12.061Z,43.60
2023-01-06T10:07:01.781Z,66.50
2023-01-06T10:11:06.293Z,88.22
2023-01-06T10:14:40.118Z,61.35
2023-01-06T10:17:53.774Z,74.80
2023-01-06T10:21:37.550Z,77.38
2023-01-06T10:25:14.924Z,69.78
2023-01-06T10:28:42.807Z,58.85
2023-01-06T10:32:17.636Z,40.70
2023-01-06T10:35:25.390Z,39.63
2023-01-06T10:38:56.175Z,29.95
2023-01-06T10:42:56.935Z,32.03
2023-01-06T10:46:01.846Z,32.28
2023-01-06T10:49:13.687Z,25.75
2023-01-06T10:56:56.165Z,33.40
2023-01-06T11:00:26.762Z,22.00
2023-01-06T11:03:34.120Z,29.75
2023-01-06T11:07:04.883Z,25.92
2023-01-06T11:10:28.859Z,46.03
2023-01-06T11:13:39.807Z,48.00
2023-01-06T11:16:53.924Z,51.35
2023-01-06T11:20:28.237Z,86.78
2023-01-06T11:23:33.815Z,80.63
2023-01-06T11:27:17.552Z,62.08
2023-01-06T11:30:30.962Z,40.65
2023-01-06T11:33:49.230Z,34.40
2023-01-06T11:36:54.571Z,37.55
2023-01-06T11:40:11.220Z,35.17
2023-01-06T11:43:23.238Z,35.47
2023-01-06T11:46:48.030Z,34.42
2023-01-06T11:50:21.637Z,29.67
2023-01-06T11:53:27.090Z,32.92
2023-01-06T12:00:07.829Z,49.10
2023-01-06T12:03:12.337Z,27.90
2023-01-06T12:06:35.478Z,25.75
2023-01-06T12:09:46.220Z,32.53
2023-01-06T12:12:51.440Z,33.30
2023-01-06T12:16:07.932Z,52.10
2023-01-06T12:19:52.667Z,45.85
2023-01-06T12:23:12.512Z,65.35
2023-01-06T12:26:23.838Z,65.15
2023-01-06T12:29:28.817Z,54.65
2023-01-06T12:32:55.578Z,52.35
2023-01-06T12:36:19.971Z,38.40
2023-01-06T12:39:51.983Z,103.90
2023-01-06T12:43:23.710Z,82.97
2023-01-06T12:47:01.260Z,105.38
2023-01-06T12:50:49.485Z,91.35
2023-01-06T12:57:31.641Z,72.60
2023-01-06T13:01:02.267Z,64.95
2023-01-06T13:04:30.306Z,65.57
2023-01-06T13:08:03.181Z,55.55
2023-01-06T13:11:15.245Z,49.70
2023-01-06T13:14:34.644Z,42.15
2023-01-06T13:17:48.751Z,46.83
2023-01-06T13:21:13.517Z,46.63
2023-01-06T13:24:24.720Z,51.47
2023-01-06T13:27:48.297Z,55.42
2023-01-06T13:31:42.544Z,19.67
2023-01-06T13:35:13.756Z,49.50
2023-01-06T13:38:41.486Z,35.72
2023-01-06T13:41:49.974Z,45.65
2023-01-06T13:44:54.197Z,37.17
2023-01-06T13:48:01.398Z,30.42
2023-01-06T13:51:17.754Z,24.10
2023-01-06T13:54:40.379Z,33.15
2023-01-06T13:57:45.481Z,30.30
2023-01-06T14:01:07.202Z,26.73
2023-01-06T14:04:43.604Z,16.33
2023-01-06T14:07:55.076Z,26.83
2023-01-06T14:11:21.393Z,21.42
2023-01-06T14:14:29.811Z,15.10
2023-01-06T14:17:42.029Z,18.88
2023-01-06T14:20:46.048Z,19.50
2023-01-06T14:27:47.182Z,13.90
2023-01-06T14:30:52.870Z,18.33
2023-01-06T14:37:44.098Z,16.05
2023-01-06T14:41:02.150Z,13.80
2023-01-06T14:44:13.029Z,15.25
2023-01-06T14:47:35.638Z,12.38
2023-01-06T14:50:47.960Z,18.13
2023-01-06T14:53:58.938Z,23.45
2023-01-06T14:57:06.949Z,42.85
2023-01-06T15:00:28.095Z,42.53
2023-01-06T15:03:33.385Z,29.35
2023-01-06T15:06:37.615Z,33.35
2023-01-06T15:09:42.135Z,28.15
2023-01-06T15:12:56.738Z,37.58
2023-01-06T15:16:04.932Z,15.82
2023-01-06T15:19:13.519Z,11.15
2023-01-06T15:22:22.744Z,13.05
2023-01-06T15:25:30.412Z,18.42
2023-01-06T15:28:36.412Z,12.98
2023-01-06T15:31:42.214Z,14.32
2023-01-06T15:34:47.709Z,16.70
2023-01-06T15:38:00.757Z,19.10
2023-01-06T15:41:06.909Z,19.77
2023-01-06T15:44:30.811Z,17.08
2023-01-06T15:47:36.873Z,22.80
2023-01-06T15:50:41.236Z,21.25
2023-01-06T15:53:47.214Z,21.20
2023-01-06T15:56:51.881Z,21.42
2023-01-06T16:00:05.232Z,19.52
2023-01-06T16:03:24.030Z,15.38
2023-01-06T16:06:41.597Z,19.42
2023-01-06T16:09:46.106Z,9.13
2023-01-06T16:16:17.924Z,18.63
2023-01-06T16:19:23.850Z,22.75
2023-01-06T16:22:37.046Z,22.40
2023-01-06T16:25:41.340Z,15.63
2023-01-06T16:28:50.489Z,32.25
2023-01-06T16:31:54.743Z,24.88
2023-01-06T16:35:06.041Z,13.27
2023-01-06T16:38:10.509Z,26.83
2023-01-06T16:44:23.245Z,16.75
2023-01-06T16:47:27.633Z,17.33
2023-01-06T16:53:46.287Z,18.98
2023-01-06T16:56:52.929Z,16.27
2023-01-06T16:59:57.280Z,11.70
2023-01-06T17:03:01.844Z,21.63
2023-01-06T17:06:21.686Z,28.92
2023-01-06T17:09:26.825Z,27.80
2023-01-06T17:12:49.735Z,29.75
2023-01-06T17:16:01.761Z,32.00
2023-01-06T17:19:22.152Z,25.38
2023-01-06T17:22:33.046Z,15.70
2023-01-06T17:25:37.569Z,10.77
2023-01-06T17:29:15.195Z,7.45
2023-01-06T17:32:24.549Z,7.85
2023-01-06T17:35:33.696Z,9.35
2023-01-06T17:38:40.419Z,12.80
2023-01-06T17:41:44.853Z,13.38
2023-01-06T17:48:01.075Z,12.18
2023-01-06T17:51:05.608Z,24.00
2023-01-06T17:54:37.008Z,17.02
2023-01-06T17:57:45.154Z,4.18
2023-01-06T18:00:51.434Z,8.65
2023-01-06T18:07:10.573Z,18.63
2023-01-06T18:10:20.355Z,12.98
2023-01-06T18:13:37.494Z,8.32
2023-01-06T18:16:42.188Z,35.33
2023-01-06T18:19:46.706Z,11.85
2023-01-06T18:22:51.098Z,6.15
2023-01-06T18:29:20.449Z,26.92
2023-01-06T18:32:37.421Z,25.85
2023-01-06T18:35:43.868Z,23.50
2023-01-06T18:38:48.306Z,14.32
2023-01-06T18:42:06.121Z,13.13
2023-01-06T18:45:17.539Z,34.88
2023-01-06T18:48:33.416Z,28.30
2023-01-06T18:51:37.941Z,15.50
2023-01-06T18:54:42.393Z,17.23
2023-01-06T18:57:52.977Z,28.63
2023-01-06T19:01:00.063Z,24.65
2023-01-06T19:04:33.618Z,11.05
2023-01-06T19:07:38.000Z,4.93
2023-01-06T19:13:47.710Z,17.73
2023-01-06T19:16:57.536Z,10.77
2023-01-06T19:20:11.632Z,15.27
2023-01-06T19:23:21.819Z,25.75
2023-01-06T19:26:33.667Z,20.42
2023-01-06T19:29:37.995Z,16.63
2023-01-06T19:35:47.427Z,29.77
2023-01-06T19:38:51.874Z,26.55
2023-01-06T19:42:02.529Z,23.15
2023-01-06T19:45:16.806Z,27.73
2023-01-06T19:48:32.944Z,24.20
2023-01-06T19:51:37.594Z,31.38
2023-01-06T19:54:42.950Z,19.70
2023-01-06T19:58:00.908Z,25.88
2023-01-06T20:01:05.403Z,17.67
2023-01-06T20:04:39.245Z,32.97
2023-01-06T20:07:43.644Z,19.92
2023-01-06T20:10:48.047Z,22.02
2023-01-06T20:13:53.027Z,23.50
2023-01-06T20:16:57.956Z,21.23
2023-01-06T20:20:02.262Z,18.48
2023-01-06T20:23:06.983Z,14.05
2023-01-06T20:26:11.815Z,26.23
2023-01-06T20:29:16.251Z,25.88
2023-01-06T20:35:25.396Z,15.43
2023-01-06T20:41:33.652Z,18.17
2023-01-06T20:47:42.719Z,17.37
2023-01-06T20:50:47.012Z,11.65
2023-01-06T20:53:51.423Z,6.93
2023-01-06T20:56:55.865Z,11.88
2023-01-06T21:00:00.225Z,6.68
2023-01-06T21:03:04.801Z,29.25
2023-01-06T21:06:09.691Z,12.13
2023-01-06T21:09:14.260Z,9.13
2023-01-06T21:12:18.794Z,24.05
2023-01-06T21:15:23.159Z,22.63
2023-01-06T21:18:27.719Z,14.60
2023-01-06T21:21:32.567Z,16.90
2023-01-06T21:24:36.959Z,14.00
2023-01-06T21:27:41.347Z,19.33
2023-01-06T21:30:47.101Z,18.52
2023-01-06T21:33:51.497Z,19.45
2023-01-06T21:36:56.046Z,33.22
2023-01-06T21:40:00.521Z,41.92
2023-01-06T21:43:11.049Z,26.30
2023-01-06T21:46:15.550Z,34.95
2023-01-06T21:49:19.970Z,53.90
2023-01-06T21:52:24.467Z,20.63
2023-01-06T21:55:29.057Z,50.88
2023-01-06T21:58:33.593Z,51.47
2023-01-06T22:01:38.043Z,20.10
2023-01-06T22:04:44.195Z,22.42
2023-01-06T22:07:53.024Z,15.95
2023-01-06T22:10:57.685Z,25.10
2023-01-06T22:14:02.367Z,28.48
2023-01-06T22:17:07.870Z,17.95
2023-01-06T22:20:14.293Z,21.75
2023-01-06T22:23:22.408Z,23.23
2023-01-06T22:26:26.952Z,23.33
2023-01-06T22:29:31.340Z,35.15
2023-01-06T22:32:47.106Z,8.32
2023-01-06T22:35:51.567Z,30.10
2023-01-06T22:38:56.180Z,10.50
2023-01-06T22:42:05.845Z,13.32
2023-01-06T22:45:11.546Z,10.13
2023-01-06T22:48:16.118Z,5.53
2023-01-06T22:51:20.619Z,15.70
2023-01-06T22:54:25.599Z,17.42
2023-01-06T22:57:30.182Z,18.90
2023-01-06T23:00:34.602Z,16.95
2023-01-06T23:03:39.448Z,20.38
2023-01-06T23:06:44.014Z,26.80
2023-01-06T23:09:48.504Z,24.20
2023-01-06T23:12:53.782Z,25.35
2023-01-06T23:16:12.189Z,23.05
2023-01-06T23:19:18.450Z,22.63
2023-01-06T23:22:22.875Z,30.38
2023-01-06T23:25:26.857Z,15.70
2023-01-06T23:28:31.046Z,30.35
2023-01-06T23:31:38.679Z,27.88
2023-01-06T23:34:42.760Z,40.30
2023-01-06T23:37:47.074Z,45.90
2023-01-06T23:43:56.585Z,20.23
2023-01-06T23:47:00.513Z,40.45
2023-01-06T23:50:04.795Z,23.13
2023-01-06T23:53:08.818Z,34.35
2023-01-06T23:56:21.785Z,25.73
2023-01-06T23:59:25.734Z,11.02
